Time;durP1;ratioP1;P1;durP2;ratioP2;P2;SDS_P1;SDS_P2;PMS_P1;PMS_P2;Temp;Humidity;BMP_temperature;BMP_pressure;BME280_temperature;BME280_humidity;BME280_pressure;Samples;Min_cycle;Max_cycle;Signal;HPM_P1;HPM_P2
2022/05/21 00:00:30;;;;;;;5.90;4.80;;;11.90;1.00;;;;;;5034739;28;20384;-75
2022/05/21 00:02:56;;;;;;;4.57;4.17;;;11.90;1.00;;;;;;5032079;28;20427;-76
2022/05/21 00:05:24;;;;;;;4.80;4.17;;;11.90;1.00;;;;;;5034322;28;20390;-76
2022/05/21 00:07:52;;;;;;;4.57;4.23;;;11.90;1.00;;;;;;5031532;28;20439;-76
2022/05/21 00:10:20;;;;;;;4.40;4.00;;;11.90;1.00;;;;;;5034511;28;20373;-77
2022/05/21 00:12:45;;;;;;;4.73;4.20;;;11.90;1.00;;;;;;5034152;28;20464;-76
2022/05/21 00:15:14;;;;;;;6.63;6.00;;;11.90;1.00;;;;;;5034709;28;20402;-75
2022/05/21 00:17:40;;;;;;;6.30;5.77;;;12.00;1.00;;;;;;5033202;28;20190;-76
2022/05/21 00:20:46;;;;;;;5.53;5.13;;;12.00;1.00;;;;;;5033371;28;20903;-72
2022/05/21 00:22:52;;;;;;;4.90;4.50;;;11.90;1.00;;;;;;5033407;28;20264;-73
2022/05/21 00:25:19;;;;;;;5.10;4.33;;;11.90;1.00;;;;;;5034284;28;20881;-75
2022/05/21 00:27:44;;;;;;;5.93;5.43;;;11.80;1.00;;;;;;5032449;28;20199;-75
2022/05/21 00:30:10;;;;;;;4.97;4.50;;;11.70;1.00;;;;;;5034093;28;20734;-73
2022/05/21 00:32:36;;;;;;;4.70;4.27;;;11.70;1.00;;;;;;5033856;28;20172;-73
2022/05/21 00:35:02;;;;;;;3.80;3.50;;;11.60;1.00;;;;;;5032873;28;20814;-76
2022/05/21 00:37:27;;;;;;;4.83;4.27;;;11.60;1.00;;;;;;5032614;28;20594;-76
2022/05/21 00:39:53;;;;;;;6.00;3.83;;;11.50;1.00;;;;;;5033663;28;20643;-75
2022/05/21 00:42:18;;;;;;;3.93;3.60;;;11.50;1.00;;;;;;5033211;28;20215;-76
2022/05/21 00:44:44;;;;;;;3.40;3.20;;;11.30;1.00;;;;;;5033645;28;20669;-73
2022/05/21 00:47:09;;;;;;;3.30;3.10;;;11.20;1.00;;;;;;5032569;28;20171;-72
2022/05/21 00:49:36;;;;;;;4.70;4.30;;;11.20;1.00;;;;;;5033857;28;20238;-75
2022/05/21 00:52:10;;;;;;;6.17;5.60;;;11.10;1.00;;;;;;5032489;28;20267;-75
2022/05/21 00:54:45;;;;;;;3.90;3.60;;;11.20;1.00;;;;;;5033740;28;20412;-74
2022/05/21 00:57:19;;;;;;;4.83;3.40;;;11.20;1.00;;;;;;5031960;28;20420;-74
2022/05/21 00:59:49;;;;;;;4.07;3.67;;;11.10;1.00;;;;;;5033333;28;20437;-73
2022/05/21 01:02:19;;;;;;;3.80;3.50;;;11.10;1.00;;;;;;5033256;28;20450;-73
2022/05/21 01:04:45;;;;;;;3.23;3.03;;;11.00;1.00;;;;;;5033353;28;20420;-73
2022/05/21 01:07:15;;;;;;;3.40;3.20;;;10.90;1.00;;;;;;5031663;28;20402;-73
2022/05/21 01:09:53;;;;;;;5.33;3.70;;;11.00;1.00;;;;;;5032504;28;20803;-71
2022/05/21 01:12:20;;;;;;;4.70;3.00;;;10.90;1.00;;;;;;5032068;28;20953;-73
2022/05/21 01:14:49;;;;;;;4.60;3.60;;;10.80;1.00;;;;;;5031663;28;20827;-72
2022/05/21 01:17:17;;;;;;;3.20;2.90;;;10.70;1.00;;;;;;5029428;28;20430;-75
2022/05/21 01:20:00;;;;;;;3.30;3.00;;;10.80;1.00;;;;;;5032280;28;20416;-75
2022/05/21 01:22:27;;;;;;;4.60;2.50;;;10.80;1.00;;;;;;5033450;28;20450;-73
2022/05/21 01:24:53;;;;;;;5.87;3.37;;;10.80;1.00;;;;;;5031742;28;20422;-74
2022/05/21 01:27:19;;;;;;;5.47;2.53;;;10.70;1.00;;;;;;5032315;28;20471;-75
2022/05/21 01:29:48;;;;;;;8.40;3.00;;;10.70;1.00;;;;;;5032046;28;20442;-73
2022/05/21 01:32:16;;;;;;;4.20;2.63;;;10.50;1.00;;;;;;5032968;28;20180;-72
2022/05/21 01:34:42;;;;;;;4.20;2.30;;;10.60;1.00;;;;;;5032994;28;20433;-75
2022/05/21 01:37:08;;;;;;;3.03;2.40;;;10.50;1.00;;;;;;5031786;28;20473;-73
2022/05/21 01:39:33;;;;;;;3.90;2.43;;;10.60;1.00;;;;;;5032850;28;20198;-71
2022/05/21 01:41:59;;;;;;;3.03;2.83;;;10.60;1.00;;;;;;5031924;28;20290;-76
2022/05/21 01:44:40;;;;;;;3.03;2.83;;;10.50;1.00;;;;;;5033130;28;20171;-76
2022/05/21 01:47:12;;;;;;;3.30;3.00;;;10.50;1.00;;;;;;5031294;28;20675;-76
2022/05/21 01:49:39;;;;;;;2.70;2.50;;;10.40;1.00;;;;;;5032767;28;20410;-74
2022/05/21 01:52:06;;;;;;;2.50;2.30;;;10.50;1.00;;;;;;5032631;28;20418;-71
2022/05/21 01:54:33;;;;;;;3.87;2.90;;;10.40;1.00;;;;;;5032724;28;20421;-75
2022/05/21 01:56:59;;;;;;;3.10;2.90;;;10.50;1.00;;;;;;5030879;28;20497;-72
2022/05/21 01:59:25;;;;;;;4.37;3.03;;;10.50;1.00;;;;;;5031419;28;20530;-73
2022/05/21 02:01:51;;;;;;;2.97;2.73;;;10.50;1.00;;;;;;5032105;28;20188;-76
2022/05/21 02:04:18;;;;;;;5.30;4.10;;;10.50;1.00;;;;;;5031768;28;20409;-74
2022/05/21 02:06:44;;;;;;;3.63;3.07;;;10.50;1.00;;;;;;5032091;28;20424;-72
2022/05/21 02:09:10;;;;;;;2.83;2.63;;;10.50;1.00;;;;;;5030546;28;20438;-72
2022/05/21 02:11:36;;;;;;;3.30;2.97;;;10.50;1.00;;;;;;5012943;28;20401;-76
2022/05/21 02:14:02;;;;;;;3.27;2.97;;;10.40;1.00;;;;;;5016684;28;20512;-76
2022/05/21 02:16:28;;;;;;;3.17;2.87;;;10.30;1.00;;;;;;5031870;28;20853;-74
2022/05/21 02:18:54;;;;;;;5.60;3.50;;;10.40;1.00;;;;;;5030530;28;20196;-76
2022/05/21 02:21:20;;;;;;;3.03;2.77;;;10.40;1.00;;;;;;5031493;28;20568;-75
2022/05/21 02:23:46;;;;;;;4.47;3.17;;;10.50;1.00;;;;;;5032598;28;20483;-74
2022/05/21 02:26:12;;;;;;;3.00;2.80;;;10.50;1.00;;;;;;5032609;28;20190;-75
2022/05/21 02:28:38;;;;;;;3.63;3.40;;;10.50;1.00;;;;;;5031295;28;20437;-69
2022/05/21 02:31:03;;;;;;;2.80;2.60;;;10.50;1.00;;;;;;5034471;28;20175;-71
2022/05/21 02:33:30;;;;;;;4.00;3.07;;;10.50;1.00;;;;;;5035694;28;20180;-75
2022/05/21 02:35:56;;;;;;;4.63;2.60;;;10.50;1.00;;;;;;5035286;28;20513;-75
2022/05/21 02:41:20;;;;;;;7.03;3.20;;;10.40;1.00;;;;;;5024143;28;20520;-75
2022/05/21 02:43:46;;;;;;;9.50;3.20;;;10.40;1.00;;;;;;5035725;28;20521;-72
2022/05/21 02:46:13;;;;;;;3.73;3.43;;;10.40;1.00;;;;;;5036005;28;20473;-72
2022/05/21 02:48:39;;;;;;;4.90;4.50;;;10.50;1.00;;;;;;5033421;28;20188;-75
2022/05/21 02:51:06;;;;;;;3.67;3.37;;;10.60;1.00;;;;;;5034043;28;20779;-75
2022/05/21 02:53:31;;;;;;;4.10;3.10;;;10.50;1.00;;;;;;5020874;28;20449;-72
2022/05/21 02:56:06;;;;;;;3.10;2.80;;;10.40;1.00;;;;;;5035623;28;20500;-76
2022/05/21 02:58:32;;;;;;;3.40;2.87;;;10.40;1.00;;;;;;5034943;28;20216;-75
2022/05/21 03:00:58;;;;;;;2.93;2.77;;;10.40;1.00;;;;;;5035654;28;20494;-70
2022/05/21 03:03:24;;;;;;;4.00;3.07;;;10.40;1.00;;;;;;5035382;28;20902;-72
2022/05/21 03:05:49;;;;;;;7.03;2.93;;;10.40;1.00;;;;;;5035426;28;20481;-72
2022/05/21 03:10:59;;;;;;;4.83;3.30;;;10.50;1.00;;;;;;5035173;28;20246;-76
2022/05/21 03:13:26;;;;;;;2.73;2.57;;;10.60;1.00;;;;;;5035777;28;20398;-73
2022/05/21 03:15:52;;;;;;;5.40;3.40;;;10.50;1.00;;;;;;5035359;28;20179;-74
2022/05/21 03:18:20;;;;;;;6.00;3.27;;;10.60;1.00;;;;;;5034374;28;20520;-74
2022/05/21 03:20:45;;;;;;;3.50;3.20;;;10.70;1.00;;;;;;5034208;28;20822;-73
2022/05/21 03:23:11;;;;;;;3.53;3.13;;;10.70;1.00;;;;;;5034696;28;20414;-74
2022/05/21 03:25:37;;;;;;;4.63;2.60;;;10.70;1.00;;;;;;5034252;28;20505;-76
2022/05/21 03:28:03;;;;;;;5.20;3.33;;;10.70;1.00;;;;;;5033504;28;20198;-75
2022/05/21 03:30:30;;;;;;;9.37;2.70;;;10.70;1.00;;;;;;5035299;28;20409;-75
2022/05/21 03:32:56;;;;;;;5.40;3.20;;;10.70;1.00;;;;;;5035090;28;20456;-75
2022/05/21 03:35:23;;;;;;;2.57;2.37;;;10.70;1.00;;;;;;5034858;28;20836;-75
2022/05/21 03:37:50;;;;;;;4.63;2.90;;;10.70;1.00;;;;;;5033881;28;20287;-75
2022/05/21 03:40:20;;;;;;;5.50;3.70;;;10.70;1.00;;;;;;5034208;28;20413;-75
2022/05/21 03:42:47;;;;;;;7.53;5.03;;;10.70;1.00;;;;;;5034161;28;20458;-74
2022/05/21 03:45:14;;;;;;;9.90;2.90;;;10.70;1.00;;;;;;5034327;28;20426;-73
2022/05/21 03:47:41;;;;;;;3.73;2.90;;;10.70;1.00;;;;;;5033387;28;20922;-73
2022/05/21 03:50:09;;;;;;;3.60;2.40;;;10.70;1.00;;;;;;5034529;28;20483;-75
2022/05/21 03:52:35;;;;;;;5.13;2.93;;;10.80;1.00;;;;;;5034708;28;20814;-75
2022/05/21 03:55:01;;;;;;;3.40;2.57;;;10.80;1.00;;;;;;5034693;28;20402;-74
2022/05/21 03:57:26;;;;;;;4.60;3.03;;;10.90;1.00;;;;;;5032115;28;20189;-75
2022/05/21 03:59:52;;;;;;;2.43;2.33;;;10.90;1.00;;;;;;5034301;28;20763;-75
2022/05/21 04:02:18;;;;;;;6.47;3.33;;;10.90;1.00;;;;;;5034178;28;20667;-75
2022/05/21 04:04:43;;;;;;;4.37;2.90;;;10.90;1.00;;;;;;5034809;28;20171;-72
2022/05/21 04:07:09;;;;;;;3.20;2.90;;;10.90;1.00;;;;;;5031663;28;20229;-72
2022/05/21 04:09:35;;;;;;;2.87;2.53;;;10.90;1.00;;;;;;5033229;28;20237;-75
2022/05/21 04:12:03;;;;;;;3.27;2.43;;;10.90;1.00;;;;;;5034391;28;20933;-73
2022/05/21 04:14:29;;;;;;;7.30;3.90;;;11.00;1.00;;;;;;5032603;28;20268;-73
2022/05/21 04:16:56;;;;;;;5.13;3.00;;;11.10;1.00;;;;;;5032461;28;20450;-73
2022/05/21 04:19:23;;;;;;;4.50;3.20;;;11.20;1.00;;;;;;5034368;28;20521;-72
2022/05/21 04:21:49;;;;;;;4.20;3.20;;;11.20;1.00;;;;;;5034093;28;20454;-74
2022/05/21 04:24:15;;;;;;;8.77;2.80;;;11.30;1.00;;;;;;5034340;28;20833;-72
2022/05/21 04:26:41;;;;;;;4.00;2.73;;;11.30;1.00;;;;;;5030922;28;20469;-76
2022/05/21 04:29:08;;;;;;;4.80;2.53;;;11.40;1.00;;;;;;5033881;28;20176;-76
2022/05/21 04:31:34;;;;;;;7.00;3.33;;;11.40;1.00;;;;;;5032273;28;20426;-75
2022/05/21 04:34:00;;;;;;;4.37;3.00;;;11.40;1.00;;;;;;5033687;28;20420;-72
2022/05/21 04:36:25;;;;;;;4.33;3.83;;;11.50;1.00;;;;;;5033484;28;20470;-73
2022/05/21 04:38:53;;;;;;;3.63;3.33;;;11.50;1.00;;;;;;5033265;28;20522;-73
2022/05/21 04:41:20;;;;;;;5.50;2.80;;;11.40;1.00;;;;;;5022875;28;20596;-74
2022/05/21 04:43:47;;;;;;;7.17;3.80;;;11.40;1.00;;;;;;5028152;28;20974;-73
2022/05/21 04:46:14;;;;;;;5.70;3.60;;;11.40;1.00;;;;;;5032015;28;20401;-76
2022/05/21 04:48:41;;;;;;;3.80;3.40;;;11.40;1.00;;;;;;5026140;28;20434;-73
2022/05/21 04:51:06;;;;;;;5.50;2.97;;;11.40;1.00;;;;;;5033796;28;20420;-75
2022/05/21 04:53:33;;;;;;;9.83;3.40;;;11.40;1.00;;;;;;5031278;28;20396;-73
2022/05/21 04:55:59;;;;;;;10.27;3.33;;;11.40;1.00;;;;;;5033812;28;20176;-75
2022/05/21 04:58:24;;;;;;;4.90;2.50;;;11.50;1.00;;;;;;5032510;28;20467;-72
2022/05/21 05:00:50;;;;;;;8.70;3.67;;;11.50;1.00;;;;;;5033383;28;20477;-74
2022/05/21 05:03:17;;;;;;;3.00;2.70;;;11.50;1.00;;;;;;5032039;28;20529;-73
2022/05/21 05:05:44;;;;;;;4.23;3.70;;;11.50;1.00;;;;;;5048997;28;20532;-73
2022/05/21 05:08:11;;;;;;;7.17;3.97;;;11.60;1.00;;;;;;5047675;28;20525;-75
2022/05/21 05:10:36;;;;;;;3.10;2.80;;;11.70;1.00;;;;;;5033677;28;20373;-72
2022/05/21 05:13:06;;;;;;;4.40;2.60;;;11.60;1.00;;;;;;5032063;28;20405;-72
2022/05/21 05:15:32;;;;;;;3.43;3.13;;;11.60;1.00;;;;;;5033568;28;20486;-73
2022/05/21 05:18:06;;;;;;;9.03;3.33;;;11.60;1.00;;;;;;5032203;28;20440;-73
2022/05/21 05:20:32;;;;;;;7.33;3.20;;;11.60;1.00;;;;;;5031387;28;20412;-76
2022/05/21 05:22:57;;;;;;;11.93;2.97;;;11.60;1.00;;;;;;5032827;28;20411;-75
2022/05/21 05:25:24;;;;;;;3.03;2.83;;;11.60;1.00;;;;;;5033305;28;20786;-73
2022/05/21 05:27:50;;;;;;;5.20;2.53;;;11.60;1.00;;;;;;5030268;28;20195;-74
2022/05/21 05:30:18;;;;;;;11.67;3.07;;;11.50;1.00;;;;;;5013391;28;20387;-75
2022/05/21 05:32:44;;;;;;;4.00;3.23;;;11.60;1.00;;;;;;5017336;28;20393;-74
2022/05/21 05:35:11;;;;;;;2.70;2.40;;;11.60;1.00;;;;;;5032191;28;20738;-75
2022/05/21 05:37:36;;;;;;;8.33;4.63;;;11.50;1.00;;;;;;5032154;28;20651;-74
2022/05/21 05:40:04;;;;;;;6.07;2.80;;;11.60;1.00;;;;;;5033215;28;20447;-75
2022/05/21 05:42:30;;;;;;;5.33;3.70;;;11.60;1.00;;;;;;5031196;28;20246;-73
2022/05/21 05:44:55;;;;;;;3.93;3.40;;;11.70;1.00;;;;;;5013426;28;20439;-75
2022/05/21 05:47:21;;;;;;;3.03;2.80;;;11.60;1.00;;;;;;5015491;28;20680;-73
2022/05/21 05:49:47;;;;;;;3.73;3.43;;;11.60;1.00;;;;;;5031710;28;20167;-75
2022/05/21 05:52:12;;;;;;;6.60;3.63;;;11.60;1.00;;;;;;5031221;28;20180;-75
2022/05/21 05:54:38;;;;;;;7.93;3.93;;;11.60;1.00;;;;;;5032459;28;20183;-74
2022/05/21 05:57:09;;;;;;;4.03;3.50;;;11.70;1.00;;;;;;5032175;28;20175;-74
2022/05/21 05:59:50;;;;;;;6.17;4.23;;;11.70;1.00;;;;;;5032467;28;20419;-76
2022/05/21 06:05:08;;;;;;;5.70;4.40;;;11.90;1.00;;;;;;5033439;28;20937;-78
2022/05/21 06:07:41;;;;;;;5.17;3.73;;;12.00;1.00;;;;;;5035016;28;20706;-77
2022/05/21 06:10:07;;;;;;;5.13;3.97;;;12.00;1.00;;;;;;5035365;28;20373;-79
2022/05/21 06:12:34;;;;;;;5.43;5.00;;;12.10;1.00;;;;;;5036929;28;20381;-77
2022/05/21 06:15:00;;;;;;;6.20;5.10;;;12.10;1.00;;;;;;5036779;28;20521;-78
2022/05/21 06:17:25;;;;;;;7.27;4.70;;;12.10;1.00;;;;;;5035501;28;20493;-81
2022/05/21 06:19:54;;;;;;;4.80;4.40;;;12.10;1.00;;;;;;5036250;28;20164;-81
2022/05/21 06:22:20;;;;;;;5.13;4.20;;;12.20;1.00;;;;;;5034211;28;20849;-77
2022/05/21 06:24:45;;;;;;;4.33;4.03;;;12.30;1.00;;;;;;5035927;28;20389;-76
2022/05/21 06:27:11;;;;;;;5.57;4.17;;;12.30;1.00;;;;;;5033912;28;20647;-76
2022/05/21 06:29:37;;;;;;;5.27;3.93;;;12.40;1.00;;;;;;5036310;28;20192;-76
2022/05/21 06:32:04;;;;;;;4.73;4.40;;;12.50;1.00;;;;;;5036216;28;20171;-75
2022/05/21 06:34:30;;;;;;;7.13;4.33;;;12.50;1.00;;;;;;5036011;28;20170;-75
2022/05/21 06:36:56;;;;;;;4.80;4.27;;;12.50;1.00;;;;;;5034243;28;20433;-73
2022/05/21 06:39:21;;;;;;;4.70;4.30;;;12.60;1.00;;;;;;5036243;28;20198;-73
2022/05/21 06:41:47;;;;;;;6.57;4.60;;;12.60;1.00;;;;;;5035800;28;20274;-75
2022/05/21 06:44:12;;;;;;;7.30;4.67;;;12.70;1.00;;;;;;5036323;28;20624;-75
2022/05/21 06:46:38;;;;;;;4.40;3.93;;;12.70;1.00;;;;;;5034859;28;20234;-76
2022/05/21 06:49:04;;;;;;;14.93;5.50;;;12.70;1.00;;;;;;5034494;28;20195;-76
2022/05/21 06:51:30;;;;;;;7.53;5.00;;;12.70;1.00;;;;;;5034712;28;20413;-77
2022/05/21 06:53:56;;;;;;;5.47;4.40;;;12.80;1.00;;;;;;5035692;28;20172;-76
2022/05/21 06:56:21;;;;;;;4.30;4.00;;;12.90;1.00;;;;;;5035865;28;20175;-75
2022/05/21 06:58:47;;;;;;;4.00;3.80;;;12.90;1.00;;;;;;5033509;28;20195;-74
2022/05/21 07:01:13;;;;;;;5.03;4.50;;;12.90;1.00;;;;;;5035730;28;20248;-77
2022/05/21 07:03:38;;;;;;;5.07;4.60;;;13.00;1.00;;;;;;5034721;28;20171;-77
2022/05/21 07:08:49;;;;;;;5.90;4.83;;;13.00;1.00;;;;;;5035365;28;20206;-75
2022/05/21 07:11:14;;;;;;;8.80;4.40;;;13.10;1.00;;;;;;5033082;28;20433;-77
2022/05/21 07:13:41;;;;;;;4.17;3.60;;;13.20;1.00;;;;;;5034580;28;20180;-78
2022/05/21 07:16:06;;;;;;;4.77;4.37;;;13.40;1.00;;;;;;5049625;28;20202;-75
2022/05/21 07:18:32;;;;;;;4.43;4.03;;;13.50;1.00;;;;;;5032618;28;20763;-77
2022/05/21 07:20:59;;;;;;;5.80;4.37;;;13.50;1.00;;;;;;5031967;28;20330;-74
2022/05/21 07:23:26;;;;;;;6.80;4.93;;;13.60;1.00;;;;;;5032269;28;20411;-76
2022/05/21 07:25:52;;;;;;;5.17;4.60;;;13.50;1.00;;;;;;5034909;28;20408;-77
2022/05/21 07:28:18;;;;;;;4.20;3.90;;;13.40;1.00;;;;;;5034147;28;20488;-77
2022/05/21 07:30:45;;;;;;;9.60;4.70;;;13.40;1.00;;;;;;5035166;28;20428;-77
2022/05/21 07:33:16;;;;;;;4.93;4.50;;;13.40;1.00;;;;;;5035233;28;20373;-76
2022/05/21 07:35:42;;;;;;;5.67;5.17;;;13.50;1.00;;;;;;5034009;28;20404;-76
2022/05/21 07:38:09;;;;;;;4.40;4.07;;;13.60;1.00;;;;;;5033847;28;20408;-76
2022/05/21 07:40:39;;;;;;;12.57;4.80;;;13.70;1.00;;;;;;5034943;28;20412;-74
2022/05/21 07:43:22;;;;;;;8.30;5.17;;;13.90;1.00;;;;;;5034702;28;20468;-74
2022/05/21 07:46:11;;;;;;;7.00;4.30;;;14.00;1.00;;;;;;5034986;28;20377;-77
2022/05/21 07:48:36;;;;;;;5.57;4.20;;;14.20;1.00;;;;;;5033324;28;20419;-74
2022/05/21 07:51:03;;;;;;;3.97;3.63;;;14.20;1.00;;;;;;5034198;28;20409;-75
2022/05/21 07:53:35;;;;;;;5.57;5.07;;;14.10;1.00;;;;;;5034977;28;20179;-77
2022/05/21 07:56:01;;;;;;;5.00;4.10;;;14.00;1.00;;;;;;5034924;28;20385;-76
2022/05/21 07:58:29;;;;;;;4.17;3.87;;;14.00;1.00;;;;;;5033821;28;20425;-78
2022/05/21 08:00:55;;;;;;;6.00;4.37;;;13.80;1.00;;;;;;5034279;28;20457;-78
2022/05/21 08:03:22;;;;;;;5.20;3.87;;;13.80;1.00;;;;;;5033618;28;20369;-76
2022/05/21 08:05:47;;;;;;;6.73;3.13;;;13.60;1.00;;;;;;5034890;28;20377;-76
2022/05/21 08:08:14;;;;;;;3.83;3.40;;;13.70;1.00;;;;;;5033561;28;20422;-80
2022/05/21 08:10:42;;;;;;;4.90;3.90;;;13.70;1.00;;;;;;5034513;28;20206;-78
2022/05/21 08:13:10;;;;;;;3.50;3.20;;;13.60;1.00;;;;;;5034715;28;20722;-76
2022/05/21 08:15:37;;;;;;;3.93;3.30;;;13.70;1.00;;;;;;5034523;28;20373;-77
2022/05/21 08:18:04;;;;;;;7.63;4.03;;;13.60;1.00;;;;;;5032546;28;20465;-76
2022/05/21 08:20:31;;;;;;;4.40;3.30;;;13.70;1.00;;;;;;5032899;28;20402;-78
2022/05/21 08:28:26;;;;;;;8.70;3.50;;;14.00;1.00;;;;;;5032423;28;20508;-76
2022/05/21 08:30:52;;;;;;;8.50;3.67;;;14.30;1.00;;;;;;5033007;28;20813;-75
2022/05/21 08:33:22;;;;;;;4.50;3.60;;;14.40;1.00;;;;;;5033324;28;20183;-77
2022/05/21 08:35:48;;;;;;;9.07;3.40;;;14.60;1.00;;;;;;5031841;28;20384;-76
2022/05/21 08:38:15;;;;;;;4.23;3.40;;;14.70;1.00;;;;;;5032198;28;20897;-77
2022/05/21 08:40:54;;;;;;;5.13;3.50;;;14.80;1.00;;;;;;5033528;28;20392;-76
2022/05/21 08:43:21;;;;;;;10.57;4.97;;;15.00;1.00;;;;;;5034095;28;20827;-78
2022/05/21 08:46:26;;;;;;;5.50;3.70;;;14.90;99.90;;;;;;5033044;28;20433;-76
2022/05/21 08:49:04;;;;;;;5.60;3.07;;;14.90;99.90;;;;;;5032170;28;20506;-78
2022/05/21 08:52:15;;;;;;;3.63;3.33;;;14.70;99.90;;;;;;5034008;28;20377;-76
2022/05/21 08:54:44;;;;;;;6.70;4.00;;;14.40;99.90;;;;;;5032839;28;20423;-77
2022/05/21 08:57:43;;;;;;;3.60;3.00;;;14.30;99.90;;;;;;5032445;28;20468;-76
2022/05/21 09:00:25;;;;;;;4.17;3.60;;;14.30;99.90;;;;;;5032879;28;20405;-77
2022/05/21 09:02:54;;;;;;;7.63;4.23;;;14.40;99.90;;;;;;5033430;28;20531;-78
2022/05/21 09:05:22;;;;;;;5.23;4.13;;;14.50;99.90;;;;;;5033616;28;20365;-74
2022/05/21 09:08:13;;;;;;;4.97;4.47;;;14.80;99.90;;;;;;5031476;28;20427;-74
2022/05/21 09:10:56;;;;;;;5.27;3.93;;;15.10;99.90;;;;;;5033320;28;20782;-73
2022/05/21 09:13:31;;;;;;;7.40;5.17;;;15.10;99.90;;;;;;5032123;28;20922;-77
2022/05/21 09:18:41;;;;;;;6.40;4.13;;;15.50;99.90;;;;;;5032619;28;21024;-74
2022/05/21 09:21:19;;;;;;;5.60;3.50;;;15.40;99.90;;;;;;5033431;28;20513;-75
2022/05/21 09:23:50;;;;;;;11.53;4.40;;;15.40;99.90;;;;;;5031958;28;20202;-75
2022/05/21 09:26:17;;;;;;;12.23;4.37;;;15.10;99.90;;;;;;5032648;28;20423;-77
2022/05/21 09:28:43;;;;;;;5.10;3.13;;;15.10;99.90;;;;;;5031024;28;20738;-75
2022/05/21 09:31:11;;;;;;;6.00;4.47;;;15.20;99.90;;;;;;5028800;28;20417;-78
2022/05/21 09:33:43;;;;;;;5.07;4.03;;;15.60;99.90;;;;;;5030668;28;20187;-78
2022/05/21 09:36:18;;;;;;;5.47;4.00;;;15.90;99.90;;;;;;5031635;28;20418;-77
2022/05/21 09:38:52;;;;;;;6.27;3.73;;;16.40;99.90;;;;;;5031481;28;20450;-76
2022/05/21 09:41:22;;;;;;;4.40;3.30;;;16.70;99.90;;;;;;5036917;28;20445;-75
2022/05/21 09:47:23;;;;;;;4.57;3.30;;;16.30;99.90;;;;;;5032369;28;20469;-77
2022/05/21 09:50:08;;;;;;;3.67;3.47;;;15.90;99.90;;;;;;5036179;28;20430;-77
2022/05/21 09:52:35;;;;;;;3.53;3.00;;;15.50;99.90;;;;;;5036427;28;20397;-78
2022/05/21 09:55:03;;;;;;;3.17;2.93;;;15.30;99.90;;;;;;5036674;28;20373;-78
2022/05/21 09:57:37;;;;;;;6.77;3.57;;;15.30;99.90;;;;;;5035643;28;20401;-77
2022/05/21 10:00:04;;;;;;;4.17;3.37;;;15.30;99.90;;;;;;5035951;28;20400;-77
2022/05/21 10:02:41;;;;;;;4.93;3.10;;;15.30;99.90;;;;;;5035841;28;20486;-79
2022/05/21 10:05:08;;;;;;;8.00;3.97;;;15.70;99.90;;;;;;5036411;28;20448;-79
2022/05/21 10:10:58;;;;;;;5.50;3.03;;;17.20;99.90;;;;;;5036843;28;20801;-77
2022/05/21 10:13:27;;;;;;;6.30;2.77;;;17.60;99.90;;;;;;5020198;28;20433;-78
2022/05/21 10:16:22;;;;;;;5.30;2.47;;;17.90;89.50;;;;;;5036389;28;20365;-77
2022/05/21 10:18:55;;;;;;;3.67;2.70;;;18.10;1.00;;;;;;5010958;28;20509;-77
2022/05/21 10:21:57;;;;;;;3.13;2.80;;;17.70;1.00;;;;;;5019380;28;20527;-78
2022/05/21 10:24:42;;;;;;;2.70;2.50;;;17.20;1.00;;;;;;5036117;28;20413;-76
2022/05/21 10:27:24;;;;;;;7.33;2.40;;;16.80;1.00;;;;;;5027642;28;20430;-78
2022/05/21 10:30:17;;;;;;;2.07;1.97;;;16.30;1.00;;;;;;5036119;28;20409;-78
2022/05/21 10:33:09;;;;;;;3.20;2.20;;;16.10;1.00;;;;;;5035907;28;20429;-79
2022/05/21 10:35:47;;;;;;;2.70;2.43;;;16.30;1.00;;;;;;5035605;28;20404;-76
2022/05/21 10:38:22;;;;;;;4.53;2.80;;;16.60;1.00;;;;;;5035036;28;20437;-78
2022/05/21 10:41:13;;;;;;;4.80;2.67;;;16.90;1.00;;;;;;5034677;28;20389;-75
2022/05/21 10:43:52;;;;;;;7.13;3.50;;;16.80;1.00;;;;;;5015391;28;20450;-76
2022/05/21 10:46:27;;;;;;;6.53;2.70;;;16.20;1.00;;;;;;5023061;28;20414;-77
2022/05/21 10:49:19;;;;;;;3.77;2.90;;;16.20;1.00;;;;;;5035191;28;20399;-77
2022/05/21 10:51:56;;;;;;;2.63;2.43;;;16.30;1.00;;;;;;5034422;28;20750;-79
2022/05/21 10:54:25;;;;;;;3.10;2.43;;;16.20;1.00;;;;;;5035724;28;20430;-79
2022/05/21 10:57:03;;;;;;;6.10;3.27;;;16.10;1.00;;;;;;5033612;28;20438;-75
2022/05/21 10:59:59;;;;;;;4.80;2.97;;;15.70;1.00;;;;;;5035446;28;20418;-77
2022/05/21 11:02:43;;;;;;;3.43;3.13;;;15.50;1.00;;;;;;5034515;28;20458;-79
2022/05/21 11:05:40;;;;;;;4.10;2.90;;;15.30;1.00;;;;;;5035254;28;20415;-75
2022/05/21 11:08:25;;;;;;;3.10;2.50;;;15.20;1.00;;;;;;5034561;28;20413;-77
2022/05/21 11:11:28;;;;;;;4.73;2.70;;;15.20;1.00;;;;;;5033572;28;20441;-76
2022/05/21 11:14:07;;;;;;;8.00;4.23;;;15.30;1.00;;;;;;5035036;28;20413;-74
2022/05/21 11:16:48;;;;;;;4.87;3.13;;;15.20;1.00;;;;;;5034440;28;20464;-74
2022/05/21 11:19:41;;;;;;;4.23;2.93;;;15.10;1.00;;;;;;5033035;28;20444;-76
2022/05/21 11:22:17;;;;;;;6.27;3.57;;;15.10;1.00;;;;;;5035130;28;20450;-75
2022/05/21 11:25:03;;;;;;;3.03;2.83;;;15.20;1.00;;;;;;5033892;28;20420;-77
2022/05/21 11:27:41;;;;;;;3.83;2.63;;;15.40;1.00;;;;;;5034221;28;20377;-75
2022/05/21 11:30:13;;;;;;;2.77;2.57;;;15.50;1.00;;;;;;5034722;28;20477;-77
2022/05/21 11:38:29;;;;;;;3.40;2.67;;;16.20;1.00;;;;;;5032439;28;20546;-76
2022/05/21 11:41:43;;;;;;;2.60;2.33;;;16.00;1.00;;;;;;5015971;28;20468;-76
2022/05/21 11:47:13;;;;;;;4.33;2.93;;;15.70;99.90;;;;;;5033856;28;20421;-77
2022/05/21 11:49:42;;;;;;;5.50;1.77;;;16.00;99.90;;;;;;5034593;28;20476;-73
2022/05/21 11:52:31;;;;;;;2.23;2.13;;;16.70;99.90;;;;;;5033312;28;20438;-78
2022/05/21 11:55:02;;;;;;;2.23;1.90;;;17.20;99.90;;;;;;5015136;28;20522;-78
2022/05/21 11:57:33;;;;;;;4.50;2.10;;;17.40;99.90;;;;;;5033395;28;20814;-77
2022/05/21 12:00:03;;;;;;;4.20;2.23;;;17.10;99.90;;;;;;5033962;28;20433;-73
2022/05/21 12:02:31;;;;;;;4.70;2.03;;;17.80;99.90;;;;;;5034115;28;20461;-78
2022/05/21 12:05:08;;;;;;;6.07;2.13;;;18.00;99.90;;;;;;5034110;28;20457;-73
2022/05/21 12:07:48;;;;;;;4.60;2.80;;;17.80;99.90;;;;;;5032445;28;20465;-73
2022/05/21 12:11:23;;;;;;;3.93;2.00;;;18.70;99.90;;;;;;5033834;28;20426;-74
2022/05/21 12:14:13;;;;;;;1.83;1.20;;;20.40;99.90;;;;;;5027690;28;20855;-77
2022/05/21 12:16:44;;;;;;;4.60;1.97;;;21.00;99.90;;;;;;5032785;28;20454;-76
2022/05/21 12:19:10;;;;;;;7.20;1.60;;;19.90;99.90;;;;;;5032415;28;20449;-72
2022/05/21 12:21:39;;;;;;;3.83;1.70;;;20.00;99.90;;;;;;5033988;28;20454;-77
2022/05/21 12:24:09;;;;;;;5.33;2.07;;;19.60;99.90;;;;;;5033673;28;20425;-76
2022/05/21 12:26:41;;;;;;;7.43;1.83;;;19.20;99.90;;;;;;5033000;28;20547;-71
2022/05/21 12:29:15;;;;;;;2.70;1.40;;;19.30;99.90;;;;;;5029696;28;20439;-77
2022/05/21 12:31:46;;;;;;;4.23;1.53;;;19.30;99.90;;;;;;5026627;28;20429;-70
2022/05/21 12:34:46;;;;;;;3.80;2.10;;;19.40;99.90;;;;;;5033451;28;20464;-74
2022/05/21 12:37:40;;;;;;;6.77;1.47;;;19.30;99.90;;;;;;5011767;28;20815;-71
2022/05/21 12:40:50;;;;;;;5.43;2.47;;;19.70;99.90;;;;;;5026523;28;20490;-77
2022/05/21 12:43:16;;;;;;;3.53;1.63;;;20.10;99.90;;;;;;5017690;28;20458;-77
2022/05/21 12:45:49;;;;;;;3.23;1.67;;;19.30;99.90;;;;;;5032607;28;20961;-76
2022/05/21 12:48:32;;;;;;;9.00;1.67;;;18.40;99.90;;;;;;5031817;28;20725;-74
2022/05/21 12:51:03;;;;;;;2.87;2.60;;;17.40;99.90;;;;;;5033196;28;20421;-68
2022/05/21 12:53:38;;;;;;;6.53;2.70;;;16.80;99.90;;;;;;5032174;28;20430;-69
2022/05/21 12:56:14;;;;;;;6.70;2.20;;;17.10;99.90;;;;;;5028335;28;20983;-77
2022/05/21 12:58:40;;;;;;;2.50;2.30;;;17.90;99.90;;;;;;5012807;28;20522;-68
2022/05/21 13:01:30;;;;;;;10.03;1.70;;;18.30;99.90;;;;;;5026913;28;20494;-68
2022/05/21 13:03:56;;;;;;;7.10;1.67;;;18.90;99.90;;;;;;5033310;28;20406;-68
2022/05/21 13:06:26;;;;;;;4.17;2.80;;;19.10;99.90;;;;;;5031121;28;20434;-68
2022/05/21 13:08:53;;;;;;;6.60;2.70;;;19.00;99.90;;;;;;5032606;28;20903;-68
2022/05/21 13:11:21;;;;;;;4.37;1.50;;;19.30;99.90;;;;;;5032191;28;20536;-68
2022/05/21 13:14:00;;;;;;;5.47;1.37;;;19.90;99.90;;;;;;5032395;28;20505;-68
2022/05/21 13:16:31;;;;;;;3.73;1.73;;;20.10;99.90;;;;;;5031194;28;20425;-67
2022/05/21 13:19:12;;;;;;;3.83;1.63;;;19.70;99.90;;;;;;5031986;28;20515;-76
2022/05/21 13:21:45;;;;;;;2.60;1.87;;;19.00;99.90;;;;;;5032960;28;20454;-73
2022/05/21 13:24:22;;;;;;;3.40;1.80;;;18.20;99.90;;;;;;5032595;28;20426;-67
2022/05/21 13:27:01;;;;;;;3.50;2.30;;;17.70;99.90;;;;;;5031125;28;21190;-67
2022/05/21 13:29:28;;;;;;;11.40;2.63;;;18.00;99.90;;;;;;5032380;28;20477;-75
2022/05/21 13:31:55;;;;;;;3.10;1.80;;;18.40;99.90;;;;;;5032934;28;20464;-75
2022/05/21 13:34:26;;;;;;;5.23;2.00;;;18.60;99.90;;;;;;5032428;28;20896;-67
2022/05/21 13:37:00;;;;;;;2.30;2.20;;;18.20;99.90;;;;;;5031581;28;20462;-67
2022/05/21 13:39:30;;;;;;;4.13;2.30;;;18.00;99.90;;;;;;5032087;28;20480;-66
2022/05/21 13:42:11;;;;;;;3.93;2.17;;;18.40;99.90;;;;;;5032568;28;20497;-76
2022/05/21 13:44:39;;;;;;;2.80;2.43;;;18.80;99.90;;;;;;5032788;28;20425;-67
2022/05/21 13:47:12;;;;;;;5.70;1.77;;;18.60;99.90;;;;;;5031265;28;20434;-76
2022/05/21 13:49:43;;;;;;;4.70;1.77;;;18.50;99.90;;;;;;5031051;28;20846;-76